Ocean Honey — VRDL3 — position and weather

sailwx.info

Track history (hours):
 
Tides and Currents Weather Stations Pressure Air Temp Water Temp Dewpoint Dewpoint Depression Visibility Wind Speed Wind Dir Waves Ship Positions

Ocean Honey

Last reported at 2015-Mar-30 16:23 UTC. Time now 2015-Jul-05 12:47 UTC.
Position N 37°14' E 123°08'.
Warning: this ship's position is months out of date.

Length 167 m; draft 5.3 m.

Type: Cargo ship. MMSI: 477003100.

Date/timePositionNaut miles runAvg speedWind from/ knotsBaromVisibWave heightAir tempDewpointWater temp
2015-Mar-30 16:23N 37°14' E 123°08'6011.8
2015-Mar-30 11:16N 38°06' E 122°30'5110.8
2015-Mar-30 06:33N 38°44' E 121°46'8 7.9
2015-Mar-30 05:34N 38°52' E 121°46'  
2015-Mar-26 09:27N 38°56' E 121°47'9 9.3
2015-Mar-26 08:29N 38°48' E 121°50'1010.4
2015-Mar-26 07:33N 38°39' E 121°56'7 7.1
2015-Mar-26 06:33N 38°33' E 122°01'4413.1
2015-Mar-26 03:11N 37°55' E 122°31'913.8
2015-Mar-26 02:33N 37°48' E 122°36'1414.0
2015-Mar-26 01:33N 37°36' E 122°45'1413.9
2015-Mar-26 00:33N 37°24' E 122°53'1413.7
2015-Mar-25 23:33N 37°10' E 122°53'1313.1
2015-Mar-25 22:33N 36°57' E 122°54'1312.6
2015-Mar-25 21:33N 36°44' E 122°53'1111.0
2015-Mar-25 20:32N 36°40' E 122°40'10012.5
2015-Mar-25 12:30N 36°01' E 120°46'9 9.4
2015-Mar-25 11:33N 35°58' E 120°35'9 9.3
2015-Mar-25 10:34N 35°59' E 120°24'1 0.7
2015-Mar-25 09:33N 35°59' E 120°25'2 2.0
2015-Mar-25 08:33N 35°59' E 120°27'0 0.1
2015-Mar-25 07:33N 35°59' E 120°27'0 0.0
2015-Mar-25 06:33N 35°59' E 120°27'0 0.0
2015-Mar-25 05:33N 35°59' E 120°27'0 0.2
2015-Mar-25 04:33N 35°59' E 120°27'5 4.9
2015-Mar-25 03:33N 36°01' E 120°22'5 0.5
2015-Mar-24 17:27N 35°60' E 120°16'0 0.0
2015-Mar-24 15:03N 35°60' E 120°16'0 0.0
2015-Mar-24 14:21N 35°60' E 120°16'0 0.0
2015-Mar-23 22:33N 35°60' E 120°16'0 0.0
2015-Mar-22 23:03N 35°60' E 120°16'0 0.0
2015-Mar-22 22:09N 35°60' E 120°16'0 0.0
2015-Mar-22 21:15N 35°60' E 120°16'0 0.0
2015-Mar-22 20:27N 35°60' E 120°16'0 0.0
2015-Mar-22 19:15N 35°60' E 120°16'0 0.0
2015-Mar-22 08:03N 35°60' E 120°16'0 0.0
2015-Mar-21 22:20N 35°60' E 120°16'  
Track history (hours):
 
Tides and Currents Weather Stations Pressure Air Temp Water Temp Dewpoint Dewpoint Depression Visibility Wind Speed Wind Dir Waves Ship Positions

Ocean Honey

Last reported at 2015-Mar-30 16:23 UTC. Time now 2015-Jul-05 12:47 UTC.
Position N 37°14' E 123°08'.
Warning: this ship's position is months out of date.

Length 167 m; draft 5.3 m.

Type: Cargo ship. MMSI: 477003100.

Date/timePositionNaut miles runAvg speedWind from/ knotsBaromVisibWave heightAir tempDewpointWater temp
2015-Mar-30 16:23N 37°14' E 123°08'6011.8
2015-Mar-30 11:16N 38°06' E 122°30'5110.8
2015-Mar-30 06:33N 38°44' E 121°46'8 7.9
2015-Mar-30 05:34N 38°52' E 121°46'  
2015-Mar-26 09:27N 38°56' E 121°47'9 9.3
2015-Mar-26 08:29N 38°48' E 121°50'1010.4
2015-Mar-26 07:33N 38°39' E 121°56'7 7.1
2015-Mar-26 06:33N 38°33' E 122°01'4413.1
2015-Mar-26 03:11N 37°55' E 122°31'913.8
2015-Mar-26 02:33N 37°48' E 122°36'1414.0
2015-Mar-26 01:33N 37°36' E 122°45'1413.9
2015-Mar-26 00:33N 37°24' E 122°53'1413.7
2015-Mar-25 23:33N 37°10' E 122°53'1313.1
2015-Mar-25 22:33N 36°57' E 122°54'1312.6
2015-Mar-25 21:33N 36°44' E 122°53'1111.0
2015-Mar-25 20:32N 36°40' E 122°40'10012.5
2015-Mar-25 12:30N 36°01' E 120°46'9 9.4
2015-Mar-25 11:33N 35°58' E 120°35'9 9.3
2015-Mar-25 10:34N 35°59' E 120°24'1 0.7
2015-Mar-25 09:33N 35°59' E 120°25'2 2.0
2015-Mar-25 08:33N 35°59' E 120°27'0 0.1
2015-Mar-25 07:33N 35°59' E 120°27'0 0.0
2015-Mar-25 06:33N 35°59' E 120°27'0 0.0
2015-Mar-25 05:33N 35°59' E 120°27'0 0.2
2015-Mar-25 04:33N 35°59' E 120°27'5 4.9
2015-Mar-25 03:33N 36°01' E 120°22'5 0.5
2015-Mar-24 17:27N 35°60' E 120°16'0 0.0
2015-Mar-24 15:03N 35°60' E 120°16'0 0.0
2015-Mar-24 14:21N 35°60' E 120°16'0 0.0
2015-Mar-23 22:33N 35°60' E 120°16'0 0.0
2015-Mar-22 23:03N 35°60' E 120°16'0 0.0
2015-Mar-22 22:09N 35°60' E 120°16'0 0.0
2015-Mar-22 21:15N 35°60' E 120°16'0 0.0
2015-Mar-22 20:27N 35°60' E 120°16'0 0.0
2015-Mar-22 19:15N 35°60' E 120°16'0 0.0
2015-Mar-22 08:03N 35°60' E 120°16'0 0.0
2015-Mar-21 22:20N 35°60' E 120°16'  

Dump ship's entire track history